In Rescue
 
Open Full Screen Window  High Contrast Mode
October 19, 2020 7:47 PM EDT
Weather Information
Wind Direction
  ---
Wind Speed
  00 kt (0 mph)
Wind Gust
  00 kt (0 mph)
Altimeter
30.12 in
Visibility
5 SM
Temperature
12° C
54° F
Dewpoint
11° C
52° F
Humidity
94%
1hr Rain Fall
00.01 in.
24hr Rain Fall
00.36 in.
Sky Condition
Overcast @ 200 ft
LIFR

METAR KPOV 192347Z AUTO 00000KT 5SM OVC002 12/11 A3012 RMK AO2 P0001 T01170108 PWINO

FAA Disclaimer: The data displayed is for advisory purposes only and is not to be used for flight planning or operations.